Nady, Arkansas
Current Conditions -  °F | °C
As of 8:15 AM on Monday 26 Jan 2015 (Local Time) from KRNV Reporting Station
Overcast Overcast  
Wind Chill: 34°   Ceiling: 2800
Heat Index: 41°   Visibility: 10mi
Dew Point: 35°   Wind: 12mph
Humidity: 81%   Direction: 360°N
Pressure: 30.13"   Gusts: NA
Location:  34.0951°N, 91.2386°W
Report Text: KRNV 261415Z AUTO 36010KT 10SM OVC028 05/02 A3013 RMK AO2 T00480018
Loading
Personal Weather Stations






























Interactive Weather Map New forecast layout! Learn more

10-Day Weather Forecast

Advertisements
Track Severe Weather on mobile